createdAt,value
2023-02-27T00:00:31.377Z,-2.87
2023-02-27T00:03:37.432Z,-2.96
2023-02-27T00:06:46.797Z,-3.01
2023-02-27T00:09:52.667Z,-3.00
2023-02-27T00:12:59.360Z,-3.06
2023-02-27T00:16:05.444Z,-3.16
2023-02-27T00:19:12.773Z,-3.16
2023-02-27T00:22:21.099Z,-3.29
2023-02-27T00:25:27.857Z,-3.29
2023-02-27T00:28:33.956Z,-3.39
2023-02-27T00:31:40.834Z,-3.35
2023-02-27T00:34:46.749Z,-3.40
2023-02-27T00:37:56.819Z,-3.37
2023-02-27T00:41:03.073Z,-3.46
2023-02-27T00:44:09.794Z,-3.46
2023-02-27T00:47:15.809Z,-3.48
2023-02-27T00:50:22.829Z,-3.50
2023-02-27T00:53:31.522Z,-3.58
2023-02-27T00:56:38.240Z,-3.66
2023-02-27T00:59:44.194Z,-3.72
2023-02-27T01:02:53.389Z,-3.79
2023-02-27T01:05:59.309Z,-3.97
2023-02-27T01:09:09.222Z,-4.01
2023-02-27T01:12:16.254Z,-4.11
2023-02-27T01:15:24.388Z,-4.12
2023-02-27T01:18:30.319Z,-4.13
2023-02-27T01:21:37.217Z,-4.12
2023-02-27T01:24:49.008Z,-4.11
2023-02-27T01:27:55.764Z,-4.16
2023-02-27T01:31:01.777Z,-4.19
2023-02-27T01:34:08.607Z,-4.16
2023-02-27T01:37:14.618Z,-4.11
2023-02-27T01:40:25.744Z,-4.06
2023-02-27T01:43:31.932Z,-3.94
2023-02-27T01:46:38.967Z,-3.86
2023-02-27T01:49:45.068Z,-3.80
2023-02-27T01:52:59.314Z,-3.64
2023-02-27T01:56:16.277Z,-3.49
2023-02-27T01:59:25.119Z,-3.30
2023-02-27T02:02:40.586Z,-3.16
2023-02-27T02:05:50.115Z,-3.06
2023-02-27T02:09:01.042Z,-3.01
2023-02-27T02:12:14.936Z,-2.92
2023-02-27T02:15:33.197Z,-2.85
2023-02-27T02:18:58.046Z,-2.86
2023-02-27T02:22:50.176Z,-2.82
2023-02-27T02:26:33.841Z,-2.74
2023-02-27T02:30:41.409Z,-2.70
2023-02-27T02:34:34.073Z,-2.64
2023-02-27T02:38:31.149Z,-2.60
2023-02-27T02:42:01.181Z,-2.58
2023-02-27T02:45:23.600Z,-2.59
2023-02-27T02:48:40.362Z,-2.55
2023-02-27T02:51:59.715Z,-2.64
2023-02-27T02:55:22.857Z,-2.73
2023-02-27T02:58:39.493Z,-2.67
2023-02-27T03:01:55.467Z,-2.72
2023-02-27T03:05:10.833Z,-2.79
2023-02-27T03:08:27.704Z,-2.86
2023-02-27T03:11:47.126Z,-2.84
2023-02-27T03:15:06.503Z,-2.86
2023-02-27T03:18:21.811Z,-2.81
2023-02-27T03:21:39.401Z,-2.75
2023-02-27T03:24:52.327Z,-2.72
2023-02-27T03:28:11.185Z,-2.78
2023-02-27T03:31:29.417Z,-2.79
2023-02-27T03:34:42.010Z,-2.85
2023-02-27T03:38:05.313Z,-2.78
2023-02-27T03:41:29.478Z,-2.75
2023-02-27T03:45:06.313Z,-2.85
2023-02-27T03:48:13.738Z,-2.85
2023-02-27T03:51:25.746Z,-2.93
2023-02-27T03:54:42.789Z,-3.09
2023-02-27T03:57:53.830Z,-2.97
2023-02-27T04:01:03.574Z,-2.83
2023-02-27T04:04:17.358Z,-2.91
2023-02-27T04:08:29.874Z,-2.85
2023-02-27T04:11:57.996Z,-2.86
2023-02-27T04:15:26.273Z,-2.91
2023-02-27T04:19:01.569Z,-2.94
2023-02-27T04:22:27.100Z,-2.95
2023-02-27T04:25:57.543Z,-2.94
2023-02-27T04:29:19.775Z,-2.98
2023-02-27T04:32:40.146Z,-2.98
2023-02-27T04:35:57.681Z,-3.01
2023-02-27T04:39:11.233Z,-3.01
2023-02-27T04:42:26.257Z,-3.04
2023-02-27T04:45:42.599Z,-3.06
2023-02-27T04:49:00.857Z,-3.30
2023-02-27T04:52:34.875Z,-3.23
2023-02-27T04:55:51.755Z,-3.18
2023-02-27T04:59:06.550Z,-3.27
2023-02-27T05:02:25.085Z,-3.23
2023-02-27T05:05:38.554Z,-3.27
2023-02-27T05:09:02.010Z,-3.24
2023-02-27T05:12:18.442Z,-3.16
2023-02-27T05:15:36.536Z,-3.18
2023-02-27T05:18:42.976Z,-3.18
2023-02-27T05:22:05.941Z,-3.14
2023-02-27T05:25:27.037Z,-3.03
2023-02-27T05:28:48.863Z,-3.23
2023-02-27T05:32:08.009Z,-3.16
2023-02-27T05:35:29.275Z,-3.18
2023-02-27T05:38:43.823Z,-3.10
2023-02-27T05:42:01.657Z,-3.05
2023-02-27T05:45:16.339Z,-3.03
2023-02-27T05:48:32.912Z,-3.23
2023-02-27T05:51:46.045Z,-3.24
2023-02-27T05:55:08.683Z,-3.26
2023-02-27T05:58:28.688Z,-3.18
2023-02-27T06:01:36.508Z,-3.03
2023-02-27T06:04:47.629Z,-3.13
2023-02-27T06:07:54.623Z,-3.21
2023-02-27T06:11:00.696Z,-3.23
2023-02-27T06:14:09.957Z,-3.08
2023-02-27T06:17:15.831Z,-3.21
2023-02-27T06:20:22.812Z,-3.05
2023-02-27T06:23:28.790Z,-3.06
2023-02-27T06:26:35.497Z,-3.08
2023-02-27T06:29:44.034Z,-3.18
2023-02-27T06:32:54.491Z,-3.17
2023-02-27T06:36:00.590Z,-3.09
2023-02-27T06:39:11.831Z,-3.15
2023-02-27T06:42:28.178Z,-3.18
2023-02-27T06:45:38.177Z,-2.97
2023-02-27T06:48:44.953Z,-3.14
2023-02-27T06:51:52.206Z,-2.90
2023-02-27T06:55:02.507Z,-2.71
2023-02-27T06:58:09.165Z,-2.83
2023-02-27T07:01:18.262Z,-2.85
2023-02-27T07:04:25.471Z,-2.91
2023-02-27T07:07:31.335Z,-2.78
2023-02-27T07:10:44.268Z,-2.77
2023-02-27T07:13:50.337Z,-2.60
2023-02-27T07:17:03.437Z,-2.66
2023-02-27T07:20:13.328Z,-2.69
2023-02-27T07:23:20.077Z,-2.68
2023-02-27T07:26:26.288Z,-2.73
2023-02-27T07:29:33.236Z,-2.58
2023-02-27T07:32:41.754Z,-2.59
2023-02-27T07:35:48.953Z,-2.37
2023-02-27T07:38:54.819Z,-2.37
2023-02-27T07:42:01.508Z,-2.38
2023-02-27T07:45:08.718Z,-2.74
2023-02-27T07:48:18.108Z,-2.41
2023-02-27T07:51:24.811Z,-2.23
2023-02-27T07:54:33.238Z,-2.27
2023-02-27T07:57:39.989Z,-2.04
2023-02-27T08:00:46.894Z,-1.98
2023-02-27T08:03:55.585Z,-1.59
2023-02-27T08:07:08.644Z,-1.51
2023-02-27T08:10:16.930Z,-1.80
2023-02-27T08:13:42.404Z,-1.96
2023-02-27T08:16:49.481Z,-1.50
2023-02-27T08:20:05.020Z,-1.58
2023-02-27T08:23:12.086Z,-1.38
2023-02-27T08:26:19.068Z,-1.25
2023-02-27T08:29:31.176Z,-1.37
2023-02-27T08:32:39.039Z,-1.26
2023-02-27T08:35:47.728Z,-1.23
2023-02-27T08:38:55.464Z,-0.91
2023-02-27T08:42:01.492Z,-0.99
2023-02-27T08:45:10.105Z,-0.74
2023-02-27T08:48:17.454Z,-0.43
2023-02-27T08:51:27.117Z,-0.26
2023-02-27T08:54:33.669Z,-0.35
2023-02-27T08:57:40.405Z,-0.28
2023-02-27T09:00:46.442Z,-0.40
2023-02-27T09:03:53.403Z,-0.35
2023-02-27T09:07:02.058Z,-0.82
2023-02-27T09:10:10.611Z,-1.23
2023-02-27T09:13:16.747Z,-1.38
2023-02-27T09:16:25.845Z,-1.38
2023-02-27T09:19:32.158Z,-1.43
2023-02-27T09:22:42.919Z,-1.39
2023-02-27T09:25:50.786Z,-1.38
2023-02-27T09:28:57.472Z,-1.44
2023-02-27T09:32:03.415Z,-1.43
2023-02-27T09:35:12.416Z,-1.27
2023-02-27T09:38:20.879Z,-1.15
2023-02-27T09:41:51.270Z,-1.17
2023-02-27T09:45:05.943Z,-0.99
2023-02-27T09:48:30.173Z,-1.07
2023-02-27T09:51:36.193Z,-1.52
2023-02-27T09:54:45.648Z,-1.58
2023-02-27T09:58:02.441Z,-1.44
2023-02-27T10:01:19.433Z,-1.50
2023-02-27T10:04:44.088Z,-1.41
2023-02-27T10:08:06.609Z,-1.25
2023-02-27T10:11:25.118Z,-1.31
2023-02-27T10:14:45.706Z,-1.35
2023-02-27T10:18:09.513Z,-1.28
2023-02-27T10:21:33.807Z,-1.01
2023-02-27T10:24:50.472Z,-0.84
2023-02-27T10:28:16.093Z,-1.11
2023-02-27T10:31:30.113Z,-1.67
2023-02-27T10:34:40.519Z,-1.58
2023-02-27T10:37:55.155Z,-1.67
2023-02-27T10:41:05.364Z,-1.84
2023-02-27T10:44:19.108Z,-1.83
2023-02-27T10:47:29.908Z,-1.77
2023-02-27T10:50:40.023Z,-1.48
2023-02-27T10:53:46.699Z,-1.20
2023-02-27T10:56:56.944Z,-1.02
2023-02-27T11:00:25.502Z,-1.23
2023-02-27T11:03:40.943Z,-1.33
2023-02-27T11:06:55.788Z,-1.52
2023-02-27T11:10:20.133Z,-1.66
2023-02-27T11:13:29.233Z,-1.54
2023-02-27T11:16:52.622Z,-1.56
2023-02-27T11:20:01.539Z,-1.21
2023-02-27T11:23:10.712Z,-1.30
2023-02-27T11:26:25.381Z,-1.19
2023-02-27T11:29:31.406Z,-0.84
2023-02-27T11:32:51.519Z,-0.33
2023-02-27T11:36:00.997Z,-0.18
2023-02-27T11:39:08.044Z,-0.00
2023-02-27T11:42:29.633Z,-0.44
2023-02-27T11:46:04.685Z,-0.41
2023-02-27T11:49:37.446Z,-0.63
2023-02-27T11:52:56.109Z,-1.08
2023-02-27T11:56:08.723Z,-1.29
2023-02-27T11:59:38.285Z,-1.49
2023-02-27T12:02:59.504Z,-1.78
2023-02-27T12:06:22.274Z,-1.61
2023-02-27T12:09:55.833Z,-1.22
2023-02-27T12:13:14.607Z,-0.87
2023-02-27T12:16:33.068Z,-0.72
2023-02-27T12:19:53.416Z,-0.88
2023-02-27T12:23:16.982Z,-1.01
2023-02-27T12:26:32.060Z,-0.29
2023-02-27T12:29:48.559Z,-0.36
2023-02-27T12:33:07.037Z,0.18
2023-02-27T12:36:17.618Z,0.47
2023-02-27T12:39:29.063Z,0.89
2023-02-27T12:43:13.433Z,1.69
2023-02-27T12:46:38.720Z,1.83
2023-02-27T12:49:55.746Z,2.24
2023-02-27T12:53:35.284Z,2.80
2023-02-27T12:57:04.126Z,2.42
2023-02-27T13:00:21.495Z,2.43
2023-02-27T13:03:39.485Z,2.42
2023-02-27T13:06:58.220Z,1.67
2023-02-27T13:10:18.085Z,1.44
2023-02-27T13:13:41.201Z,0.95
2023-02-27T13:16:59.054Z,0.41
2023-02-27T13:20:32.887Z,0.27
2023-02-27T13:23:58.710Z,0.40
2023-02-27T13:27:22.786Z,0.09
2023-02-27T13:30:41.146Z,-0.06
2023-02-27T13:34:09.522Z,-0.32
2023-02-27T13:37:26.681Z,0.01
2023-02-27T13:40:42.568Z,-0.02
2023-02-27T13:43:52.441Z,-0.21
2023-02-27T13:47:43.757Z,-0.33
2023-02-27T13:50:55.417Z,-0.03
2023-02-27T13:54:26.298Z,-0.26
2023-02-27T13:57:40.060Z,-0.08
2023-02-27T14:00:58.919Z,-0.57
2023-02-27T14:04:17.433Z,-0.51
2023-02-27T14:07:29.943Z,-0.60
2023-02-27T14:10:40.119Z,-0.60
2023-02-27T14:14:05.586Z,-0.55
2023-02-27T14:17:17.119Z,-1.03
2023-02-27T14:20:54.672Z,-0.89
2023-02-27T14:24:01.042Z,-1.09
2023-02-27T14:27:20.331Z,-1.20
2023-02-27T14:30:35.134Z,-1.31
2023-02-27T14:33:49.223Z,-1.09
2023-02-27T14:37:04.130Z,-1.16
2023-02-27T14:40:29.173Z,-1.51
2023-02-27T14:43:43.362Z,-1.72
2023-02-27T14:46:50.445Z,-1.56
2023-02-27T14:49:56.997Z,-1.65
2023-02-27T14:53:08.762Z,-1.83
2023-02-27T14:56:22.951Z,-1.99
2023-02-27T14:59:34.252Z,-1.85
2023-02-27T15:02:41.210Z,-1.70
2023-02-27T15:05:50.313Z,-1.85
2023-02-27T15:09:00.085Z,-1.88
2023-02-27T15:12:08.550Z,-1.97
2023-02-27T15:15:24.449Z,-2.00
2023-02-27T15:18:31.368Z,-2.03
2023-02-27T15:21:44.387Z,-2.14
2023-02-27T15:24:55.120Z,-2.23
2023-02-27T15:28:07.380Z,-2.20
2023-02-27T15:31:27.318Z,-2.39
2023-02-27T15:34:34.019Z,-2.18
2023-02-27T15:37:43.854Z,-2.12
2023-02-27T15:40:53.317Z,-2.09
2023-02-27T15:44:01.068Z,-2.03
2023-02-27T15:47:09.859Z,-1.92
2023-02-27T15:50:31.575Z,-2.15
2023-02-27T15:53:41.884Z,-2.08
2023-02-27T15:56:53.029Z,-2.11
2023-02-27T16:00:04.711Z,-2.01
2023-02-27T16:03:30.966Z,-2.11
2023-02-27T16:06:42.496Z,-2.14
2023-02-27T16:09:55.957Z,-2.06
2023-02-27T16:13:24.172Z,-2.22
2023-02-27T16:16:36.217Z,-2.05
2023-02-27T16:19:46.085Z,-1.99
2023-02-27T16:23:06.981Z,-2.03
2023-02-27T16:26:32.146Z,-2.08
2023-02-27T16:29:48.971Z,-2.18
2023-02-27T16:33:04.493Z,-2.45
2023-02-27T16:36:25.209Z,-2.47
2023-02-27T16:39:31.525Z,-2.50
2023-02-27T16:42:38.571Z,-2.48
2023-02-27T16:45:56.605Z,-2.47
2023-02-27T16:49:18.875Z,-2.40
2023-02-27T16:52:25.819Z,-2.53
2023-02-27T16:55:34.551Z,-2.63
2023-02-27T16:58:40.752Z,-2.66
2023-02-27T17:01:50.451Z,-2.59
2023-02-27T17:04:56.574Z,-2.63
2023-02-27T17:08:03.686Z,-2.50
2023-02-27T17:11:10.389Z,-2.57
2023-02-27T17:14:17.285Z,-2.64
2023-02-27T17:17:25.903Z,-2.73
2023-02-27T17:20:33.037Z,-2.72
2023-02-27T17:23:39.002Z,-2.83
2023-02-27T17:26:46.467Z,-2.80
2023-02-27T17:29:52.535Z,-2.75
2023-02-27T17:33:04.178Z,-2.80
2023-02-27T17:36:13.951Z,-2.82
2023-02-27T17:39:20.895Z,-2.97
2023-02-27T17:42:27.443Z,-3.01
2023-02-27T17:45:34.512Z,-3.18
2023-02-27T17:48:43.254Z,-3.17
2023-02-27T17:51:50.605Z,-3.09
2023-02-27T17:55:05.038Z,-3.14
2023-02-27T17:58:12.868Z,-3.10
2023-02-27T18:01:26.658Z,-3.03
2023-02-27T18:04:37.319Z,-3.12
2023-02-27T18:07:44.193Z,-3.08
2023-02-27T18:10:51.867Z,-3.18
2023-02-27T18:14:00.816Z,-3.09
2023-02-27T18:17:13.345Z,-3.01
2023-02-27T18:20:22.276Z,-3.03
2023-02-27T18:23:29.460Z,-2.96
2023-02-27T18:26:36.732Z,-2.94
2023-02-27T18:29:43.963Z,-2.91
2023-02-27T18:32:50.069Z,-2.85
2023-02-27T18:35:59.756Z,-2.81
2023-02-27T18:39:08.002Z,-2.73
2023-02-27T18:42:17.022Z,-2.66
2023-02-27T18:45:23.572Z,-2.63
2023-02-27T18:48:36.127Z,-2.64
2023-02-27T18:51:50.967Z,-2.64
2023-02-27T18:54:58.017Z,-2.59
2023-02-27T18:58:06.042Z,-2.63
2023-02-27T19:01:23.982Z,-2.57
2023-02-27T19:04:30.294Z,-2.83
2023-02-27T19:07:39.970Z,-2.77
2023-02-27T19:10:46.886Z,-2.82
2023-02-27T19:13:55.216Z,-3.02
2023-02-27T19:17:01.859Z,-2.87
2023-02-27T19:20:14.563Z,-3.08
2023-02-27T19:23:23.235Z,-3.01
2023-02-27T19:26:30.946Z,-2.95
2023-02-27T19:29:37.136Z,-2.98
2023-02-27T19:32:44.229Z,-2.95
2023-02-27T19:35:50.482Z,-2.97
2023-02-27T19:39:00.907Z,-2.93
2023-02-27T19:42:07.241Z,-2.76
2023-02-27T19:45:15.029Z,-2.73
2023-02-27T19:48:21.282Z,-2.78
2023-02-27T19:51:28.747Z,-2.76
2023-02-27T19:54:37.628Z,-2.83
2023-02-27T19:57:44.648Z,-2.91
2023-02-27T20:00:51.629Z,-2.87
2023-02-27T20:03:59.577Z,-2.81
2023-02-27T20:07:05.754Z,-2.83
2023-02-27T20:10:16.350Z,-2.75
2023-02-27T20:13:22.705Z,-2.71
2023-02-27T20:16:34.598Z,-2.70
2023-02-27T20:19:41.762Z,-2.75
2023-02-27T20:22:49.470Z,-2.88
2023-02-27T20:25:58.319Z,-2.75
2023-02-27T20:29:09.775Z,-2.63
2023-02-27T20:32:15.832Z,-2.51
2023-02-27T20:35:22.802Z,-2.63
2023-02-27T20:38:30.092Z,-2.63
2023-02-27T20:41:40.554Z,-2.62
2023-02-27T20:44:46.794Z,-2.56
2023-02-27T20:47:53.910Z,-2.60
2023-02-27T20:50:59.835Z,-2.59
2023-02-27T20:54:11.102Z,-2.72
2023-02-27T20:57:19.644Z,-2.79
2023-02-27T21:00:28.036Z,-2.88
2023-02-27T21:03:42.990Z,-2.69
2023-02-27T21:06:49.823Z,-2.62
2023-02-27T21:09:55.668Z,-2.49
2023-02-27T21:13:05.049Z,-2.49
2023-02-27T21:16:15.637Z,-2.44
2023-02-27T21:19:22.336Z,-2.51
2023-02-27T21:22:28.225Z,-2.49
2023-02-27T21:25:34.917Z,-2.37
2023-02-27T21:28:47.861Z,-2.32
2023-02-27T21:31:55.655Z,-2.29
2023-02-27T21:35:01.575Z,-2.20
2023-02-27T21:38:08.354Z,-2.26
2023-02-27T21:41:17.579Z,-2.35
2023-02-27T21:44:29.875Z,-2.37
2023-02-27T21:47:35.843Z,-2.43
2023-02-27T21:50:43.064Z,-2.51
2023-02-27T21:53:50.115Z,-2.44
2023-02-27T21:56:58.233Z,-2.47
2023-02-27T22:00:11.460Z,-2.53
2023-02-27T22:03:18.257Z,-2.47
2023-02-27T22:06:27.567Z,-2.49
2023-02-27T22:09:34.664Z,-2.49
2023-02-27T22:12:40.521Z,-2.49
2023-02-27T22:15:50.068Z,-2.46
2023-02-27T22:18:56.704Z,-2.56
2023-02-27T22:22:03.509Z,-2.53
2023-02-27T22:25:10.295Z,-2.43
2023-02-27T22:28:16.910Z,-2.40
2023-02-27T22:31:29.421Z,-2.50
2023-02-27T22:34:36.767Z,-2.54
2023-02-27T22:37:44.073Z,-2.66
2023-02-27T22:40:50.730Z,-2.79
2023-02-27T22:43:57.356Z,-2.78
2023-02-27T22:47:06.722Z,-2.72
2023-02-27T22:50:19.877Z,-2.70
2023-02-27T22:53:26.850Z,-2.76
2023-02-27T22:56:34.470Z,-2.63
2023-02-27T22:59:41.469Z,-2.53
2023-02-27T23:02:50.170Z,-2.46
2023-02-27T23:05:56.831Z,-2.55
2023-02-27T23:09:04.897Z,-2.57
2023-02-27T23:12:11.811Z,-2.65
2023-02-27T23:15:17.838Z,-2.72
2023-02-27T23:18:27.726Z,-2.72
2023-02-27T23:21:38.789Z,-2.89
2023-02-27T23:24:45.437Z,-2.76
2023-02-27T23:27:51.462Z,-2.70
2023-02-27T23:30:59.744Z,-2.63
2023-02-27T23:34:13.660Z,-2.54
2023-02-27T23:37:20.265Z,-2.47
2023-02-27T23:40:31.543Z,-2.63
2023-02-27T23:43:38.508Z,-2.69
2023-02-27T23:46:44.510Z,-2.87
2023-02-27T23:49:53.795Z,-2.83
2023-02-27T23:53:05.420Z,-2.99
2023-02-27T23:56:18.587Z,-3.08
2023-02-27T23:59:24.495Z,-3.20
